Time;durP1;ratioP1;P1;durP2;ratioP2;P2;SDS_P1;SDS_P2;PMS_P1;PMS_P2;Temp;Humidity;BMP_temperature;BMP_pressure;BME280_temperature;BME280_humidity;BME280_pressure;Samples;Min_cycle;Max_cycle;Signal;HPM_P1;HPM_P2
2022/11/15 00:01:51;;;;;;;128.85;65.45;;;7.50;99.90;;;;;;5012162;28;20044;-70
2022/11/15 00:04:36;;;;;;;161.02;77.03;;;7.60;99.90;;;;;;5009991;28;20061;-73
2022/11/15 00:07:20;;;;;;;133.48;67.90;;;7.50;99.90;;;;;;4997597;28;20089;-70
2022/11/15 00:10:05;;;;;;;125.20;69.22;;;7.60;99.90;;;;;;4994875;28;20774;-71
2022/11/15 00:12:50;;;;;;;133.73;66.95;;;7.60;99.90;;;;;;5000949;28;20049;-71
2022/11/15 00:15:39;;;;;;;146.82;67.68;;;7.70;99.90;;;;;;5009070;28;20805;-70
2022/11/15 00:18:24;;;;;;;160.95;75.65;;;7.70;99.90;;;;;;5004973;28;20523;-70
2022/11/15 00:21:16;;;;;;;175.45;76.65;;;7.70;99.90;;;;;;5001385;28;20530;-70
2022/11/15 00:24:00;;;;;;;154.65;73.28;;;7.70;99.90;;;;;;5005756;28;20528;-72
2022/11/15 00:26:44;;;;;;;180.57;78.07;;;7.70;99.90;;;;;;5004954;28;20167;-71
2022/11/15 00:29:29;;;;;;;137.32;72.18;;;7.70;99.90;;;;;;5002303;28;20881;-71
2022/11/15 00:32:13;;;;;;;193.07;81.05;;;7.80;99.90;;;;;;5005269;28;20104;-72
2022/11/15 00:34:58;;;;;;;130.50;64.93;;;7.80;99.90;;;;;;5003174;28;20435;-74
2022/11/15 00:37:42;;;;;;;207.73;80.30;;;7.80;99.90;;;;;;5002701;28;20104;-71
2022/11/15 00:40:27;;;;;;;202.45;77.22;;;7.80;99.90;;;;;;5011035;28;20049;-74
2022/11/15 00:43:11;;;;;;;149.23;70.38;;;7.80;99.90;;;;;;5007154;28;20044;-74
2022/11/15 00:45:56;;;;;;;164.45;76.85;;;7.90;99.90;;;;;;4992577;28;20045;-73
2022/11/15 00:48:41;;;;;;;162.48;70.47;;;7.80;99.90;;;;;;5004250;28;20397;-71
2022/11/15 00:51:25;;;;;;;187.13;75.68;;;7.80;99.90;;;;;;4996492;28;20041;-73
2022/11/15 00:54:10;;;;;;;163.43;75.70;;;7.80;99.90;;;;;;4995622;28;20041;-72
2022/11/15 00:56:57;;;;;;;157.60;69.10;;;7.80;99.90;;;;;;4994252;28;20114;-75
2022/11/15 00:59:41;;;;;;;157.10;69.95;;;7.80;99.90;;;;;;4999460;28;20081;-75
2022/11/15 01:02:27;;;;;;;129.55;65.97;;;7.80;99.90;;;;;;5000500;28;20068;-75
2022/11/15 01:05:15;;;;;;;143.27;69.13;;;7.90;99.90;;;;;;4999176;28;20053;-74
2022/11/15 01:07:59;;;;;;;144.70;67.43;;;8.00;99.90;;;;;;5007366;28;20048;-72
2022/11/15 01:10:44;;;;;;;132.35;67.18;;;8.10;99.90;;;;;;5010016;28;20119;-71
2022/11/15 01:13:34;;;;;;;194.43;77.53;;;8.10;99.90;;;;;;5010017;28;20579;-73
2022/11/15 01:16:18;;;;;;;160.55;71.15;;;8.00;99.90;;;;;;4997400;28;20080;-76
2022/11/15 01:19:03;;;;;;;149.77;66.45;;;8.10;99.90;;;;;;5010052;28;20065;-75
2022/11/15 01:21:51;;;;;;;204.25;78.05;;;8.20;99.90;;;;;;5010504;28;20116;-74
2022/11/15 01:24:35;;;;;;;137.45;60.22;;;8.10;99.90;;;;;;5010082;28;20053;-75
2022/11/15 01:27:20;;;;;;;133.90;64.43;;;8.20;99.90;;;;;;5002138;28;20123;-72
2022/11/15 01:30:05;;;;;;;174.45;70.85;;;8.20;99.90;;;;;;5010139;28;20045;-76
2022/11/15 01:32:49;;;;;;;189.82;70.10;;;8.20;99.90;;;;;;5013153;28;20053;-75
2022/11/15 01:35:38;;;;;;;161.48;68.38;;;8.20;99.90;;;;;;5013149;28;20049;-72
2022/11/15 01:38:23;;;;;;;116.25;56.63;;;8.20;99.90;;;;;;5010130;28;20053;-70
2022/11/15 01:41:18;;;;;;;132.07;58.85;;;8.20;99.90;;;;;;5014404;28;20073;-73
2022/11/15 01:44:37;;;;;;;107.57;55.85;;;8.30;99.90;;;;;;5014172;28;20057;-71
2022/11/15 01:47:26;;;;;;;158.13;67.07;;;8.40;99.90;;;;;;5013560;28;20045;-71
2022/11/15 01:50:14;;;;;;;135.70;61.83;;;8.30;99.90;;;;;;5003164;28;20053;-73
2022/11/15 01:52:59;;;;;;;114.15;58.03;;;8.30;99.90;;;;;;5013695;28;20048;-76
2022/11/15 01:55:44;;;;;;;185.35;72.72;;;8.30;99.90;;;;;;5012880;28;20111;-72
2022/11/15 01:58:28;;;;;;;119.60;59.40;;;8.40;99.90;;;;;;5002287;28;20076;-72
2022/11/15 02:01:14;;;;;;;113.70;57.92;;;8.30;99.90;;;;;;5005532;28;20545;-70
2022/11/15 02:04:03;;;;;;;114.43;58.78;;;8.40;99.90;;;;;;5000029;28;20040;-72
2022/11/15 02:06:48;;;;;;;140.60;62.25;;;8.30;99.90;;;;;;5013874;28;20726;-73
2022/11/15 02:09:33;;;;;;;136.88;61.72;;;8.40;99.90;;;;;;5014396;28;20060;-76
2022/11/15 02:12:21;;;;;;;134.65;62.47;;;8.40;99.90;;;;;;5008854;28;20057;-74
2022/11/15 02:15:08;;;;;;;126.22;59.17;;;8.40;99.90;;;;;;4994569;28;20029;-75
2022/11/15 02:18:17;;;;;;;146.18;61.83;;;8.50;99.90;;;;;;4997103;28;20112;-72
2022/11/15 02:21:06;;;;;;;130.88;62.10;;;8.50;99.90;;;;;;4993092;28;20460;-71
2022/11/15 02:24:07;;;;;;;147.15;62.65;;;8.60;99.90;;;;;;4993932;28;20105;-72
2022/11/15 02:27:27;;;;;;;96.57;54.45;;;8.60;99.90;;;;;;4992919;28;20146;-72
2022/11/15 02:30:47;;;;;;;96.30;50.03;;;8.60;99.90;;;;;;4992786;28;20049;-71
2022/11/15 02:33:52;;;;;;;106.78;54.08;;;8.50;99.90;;;;;;4971788;28;20046;-70
2022/11/15 02:37:19;;;;;;;112.50;56.15;;;8.60;99.90;;;;;;4979560;28;20098;-75
2022/11/15 02:40:21;;;;;;;129.38;55.95;;;8.50;99.90;;;;;;4971852;28;20074;-71
2022/11/15 02:49:47;;;;;;;113.28;53.08;;;8.40;99.90;;;;;;4913051;29;20134;-72
2022/11/15 02:52:32;;;;;;;140.48;60.10;;;8.50;99.90;;;;;;4912808;29;20360;-73
2022/11/15 02:55:49;;;;;;;117.78;56.13;;;8.50;99.90;;;;;;4912934;29;20035;-72
2022/11/15 02:58:59;;;;;;;121.93;57.83;;;8.40;99.90;;;;;;4893591;29;20044;-70
2022/11/15 03:02:24;;;;;;;116.05;55.58;;;8.40;99.90;;;;;;4893477;29;20406;-74
2022/11/15 03:05:15;;;;;;;111.47;52.60;;;8.50;99.90;;;;;;4822290;29;20393;-70
2022/11/15 03:07:59;;;;;;;116.30;54.20;;;8.60;99.90;;;;;;4824774;29;20060;-74
2022/11/15 03:11:11;;;;;;;122.65;54.40;;;8.60;99.90;;;;;;4857138;29;20563;-71
2022/11/15 03:14:22;;;;;;;105.47;52.15;;;8.60;99.90;;;;;;4857175;29;20813;-70
2022/11/15 03:17:12;;;;;;;109.38;54.80;;;8.70;99.90;;;;;;4860156;29;20458;-73
2022/11/15 03:20:00;;;;;;;107.80;54.70;;;8.70;99.90;;;;;;4856715;29;20462;-70
2022/11/15 03:22:48;;;;;;;108.13;53.05;;;8.70;99.90;;;;;;4856564;29;20044;-72
2022/11/15 03:25:34;;;;;;;114.55;54.88;;;8.80;99.90;;;;;;4866605;29;20096;-72
2022/11/15 03:28:27;;;;;;;106.47;54.13;;;8.80;99.90;;;;;;4893712;29;20047;-77
2022/11/15 03:34:25;;;;;;;91.88;52.08;;;8.90;99.90;;;;;;4901174;29;20054;-75
2022/11/15 03:37:13;;;;;;;100.78;51.40;;;8.80;99.90;;;;;;5008320;28;20618;-76
2022/11/15 03:39:57;;;;;;;98.22;49.63;;;8.80;99.90;;;;;;4997829;28;20451;-76
2022/11/15 03:43:20;;;;;;;89.25;50.10;;;8.80;99.90;;;;;;5000111;28;20040;-73
2022/11/15 03:46:24;;;;;;;95.45;49.58;;;8.80;99.90;;;;;;5006913;28;20048;-72
2022/11/15 03:49:17;;;;;;;95.28;51.30;;;8.90;99.90;;;;;;5012122;28;20612;-77
2022/11/15 03:52:03;;;;;;;98.65;50.83;;;9.00;99.90;;;;;;5012042;28;20052;-71
2022/11/15 03:54:52;;;;;;;99.75;50.75;;;9.00;99.90;;;;;;5011431;28;20226;-72
2022/11/15 03:57:37;;;;;;;102.63;52.38;;;8.90;99.90;;;;;;5012159;28;20088;-71
2022/11/15 04:00:22;;;;;;;109.95;52.80;;;8.90;99.90;;;;;;5012313;28;20040;-76
2022/11/15 04:03:07;;;;;;;102.72;53.90;;;8.80;99.90;;;;;;5012076;28;20168;-72
2022/11/15 04:05:52;;;;;;;101.90;52.00;;;8.80;99.90;;;;;;5011994;28;20048;-74
2022/11/15 04:08:36;;;;;;;101.65;52.38;;;8.90;99.90;;;;;;5009123;28;20053;-75
2022/11/15 04:11:21;;;;;;;99.50;51.00;;;8.80;99.90;;;;;;4997187;28;20440;-73
2022/11/15 04:14:06;;;;;;;93.75;49.72;;;8.90;99.90;;;;;;5004733;28;20045;-72
2022/11/15 04:16:50;;;;;;;97.57;51.20;;;9.00;99.90;;;;;;5002370;28;20146;-71
2022/11/15 04:25:41;;;;;;;88.50;47.63;;;9.00;99.90;;;;;;5005433;28;20404;-72
2022/11/15 04:28:26;;;;;;;96.63;49.85;;;9.00;99.90;;;;;;5010700;28;20491;-71
2022/11/15 04:31:10;;;;;;;93.20;51.10;;;9.00;99.90;;;;;;5010581;28;20048;-70
2022/11/15 04:33:55;;;;;;;105.38;55.10;;;9.00;99.90;;;;;;5011409;28;20503;-74
2022/11/15 04:39:43;;;;;;;102.43;54.75;;;8.70;99.90;;;;;;5007697;28;20053;-71
2022/11/15 04:42:29;;;;;;;97.70;52.65;;;8.70;99.90;;;;;;5010379;28;20050;-76
2022/11/15 04:45:14;;;;;;;105.38;55.45;;;8.80;99.90;;;;;;5010978;28;20419;-70
2022/11/15 04:47:58;;;;;;;109.75;54.33;;;8.70;99.90;;;;;;5010846;28;20133;-76
2022/11/15 04:50:43;;;;;;;108.75;52.30;;;8.80;99.90;;;;;;5010334;28;20084;-72
2022/11/15 04:53:27;;;;;;;113.68;57.47;;;8.80;99.90;;;;;;5005385;28;20108;-76
2022/11/15 04:56:12;;;;;;;106.28;51.83;;;8.80;99.90;;;;;;5007628;28;20084;-75
2022/11/15 04:58:56;;;;;;;97.80;49.67;;;8.90;99.90;;;;;;5010661;28;20495;-70
2022/11/15 05:01:40;;;;;;;108.47;52.95;;;8.90;99.90;;;;;;5003362;28;20045;-72
2022/11/15 05:04:25;;;;;;;101.32;53.28;;;9.00;99.90;;;;;;5010660;28;20033;-73
2022/11/15 05:07:09;;;;;;;97.25;50.78;;;8.90;99.90;;;;;;5009416;28;20049;-75
2022/11/15 05:09:53;;;;;;;106.47;51.70;;;8.90;99.90;;;;;;5010433;28;20068;-75
2022/11/15 05:12:38;;;;;;;98.57;53.85;;;8.90;99.90;;;;;;5009479;28;20065;-71
2022/11/15 05:15:23;;;;;;;98.60;51.67;;;8.90;99.90;;;;;;5010595;28;20088;-71
2022/11/15 05:18:07;;;;;;;113.50;55.53;;;8.70;99.90;;;;;;4997434;28;20096;-72
2022/11/15 05:20:52;;;;;;;103.05;53.83;;;8.70;99.90;;;;;;4998378;28;20129;-71
2022/11/15 05:23:37;;;;;;;116.55;57.55;;;8.70;99.90;;;;;;5010366;28;20041;-72
2022/11/15 05:26:22;;;;;;;142.45;64.13;;;8.70;99.90;;;;;;5010465;28;20491;-75
2022/11/15 05:29:06;;;;;;;140.27;65.57;;;8.60;99.90;;;;;;5009869;28;20072;-73
2022/11/15 05:31:51;;;;;;;127.10;59.40;;;8.40;99.90;;;;;;4999829;28;20088;-74
2022/11/15 05:34:35;;;;;;;118.85;58.00;;;8.40;99.90;;;;;;5010342;28;20073;-76
2022/11/15 05:37:20;;;;;;;111.25;55.67;;;8.60;99.90;;;;;;5010114;28;20513;-72
2022/11/15 05:40:05;;;;;;;141.45;66.40;;;8.70;99.90;;;;;;5010732;28;20049;-72
2022/11/15 05:42:50;;;;;;;126.38;61.65;;;8.50;99.90;;;;;;5001428;28;20585;-72
2022/11/15 05:45:36;;;;;;;110.47;56.60;;;8.30;99.90;;;;;;4998788;28;20522;-73
2022/11/15 05:48:20;;;;;;;123.90;56.10;;;8.40;99.90;;;;;;5009978;28;20095;-72
2022/11/15 05:51:07;;;;;;;115.60;55.05;;;8.40;99.90;;;;;;4999149;28;20096;-72
2022/11/15 05:53:53;;;;;;;116.13;54.28;;;8.60;99.90;;;;;;5010576;28;20403;-72
2022/11/15 05:56:37;;;;;;;110.85;53.30;;;8.60;99.90;;;;;;5009147;28;20136;-71
2022/11/15 05:59:22;;;;;;;108.47;54.60;;;8.60;99.90;;;;;;4997356;28;20044;-72
2022/11/15 06:02:07;;;;;;;115.50;58.03;;;8.70;99.90;;;;;;5010099;28;20044;-73
2022/11/15 06:04:51;;;;;;;131.63;61.92;;;8.70;99.90;;;;;;5010201;28;20076;-72
2022/11/15 06:07:35;;;;;;;131.63;63.95;;;8.60;99.90;;;;;;5009761;28;20096;-72
2022/11/15 06:10:19;;;;;;;116.15;58.25;;;8.60;99.90;;;;;;5010376;28;20129;-71
2022/11/15 06:13:04;;;;;;;117.80;58.08;;;8.60;99.90;;;;;;5009026;28;20518;-71
2022/11/15 06:15:52;;;;;;;116.55;58.20;;;8.70;99.90;;;;;;5009774;28;20045;-70
2022/11/15 06:18:37;;;;;;;106.43;54.60;;;8.80;99.90;;;;;;5000792;28;20058;-72
2022/11/15 06:21:21;;;;;;;94.22;52.47;;;8.90;99.90;;;;;;5012980;28;20106;-72
2022/11/15 06:24:06;;;;;;;96.07;50.17;;;8.90;99.90;;;;;;5013637;28;20052;-72
2022/11/15 06:26:51;;;;;;;105.18;56.78;;;9.10;99.90;;;;;;5013947;28;20037;-72
2022/11/15 06:29:36;;;;;;;101.57;57.53;;;9.10;99.90;;;;;;5013422;28;20057;-72
2022/11/15 06:32:20;;;;;;;95.40;55.60;;;9.20;99.90;;;;;;5013539;28;20115;-72
2022/11/15 06:35:05;;;;;;;90.20;53.90;;;9.30;99.90;;;;;;5001097;28;20172;-72
2022/11/15 06:37:49;;;;;;;90.93;53.88;;;9.40;99.90;;;;;;5013406;28;20100;-71
2022/11/15 06:40:35;;;;;;;106.25;63.22;;;9.50;99.90;;;;;;4999667;28;20041;-72
2022/11/15 06:43:20;;;;;;;108.70;61.70;;;9.40;99.90;;;;;;5013252;28;20052;-71
2022/11/15 06:46:05;;;;;;;90.75;52.47;;;9.50;99.90;;;;;;5012649;28;20068;-70
2022/11/15 06:48:51;;;;;;;102.30;56.85;;;9.50;99.90;;;;;;5005845;28;20396;-71
2022/11/15 06:51:36;;;;;;;104.00;55.03;;;9.40;99.90;;;;;;5005642;28;20184;-71
2022/11/15 06:54:21;;;;;;;90.13;55.45;;;9.40;99.90;;;;;;5001150;28;20049;-72
2022/11/15 06:57:05;;;;;;;98.55;57.25;;;9.50;99.90;;;;;;5012892;28;20401;-71
2022/11/15 06:59:50;;;;;;;100.97;57.05;;;9.60;99.90;;;;;;5012749;28;20052;-71
2022/11/15 07:02:34;;;;;;;106.50;61.25;;;9.50;99.90;;;;;;5011939;28;20040;-71
2022/11/15 07:05:18;;;;;;;106.43;60.05;;;9.50;99.90;;;;;;5006515;28;20104;-73
2022/11/15 07:08:03;;;;;;;105.97;59.80;;;9.50;99.90;;;;;;5011337;28;20084;-71
2022/11/15 07:10:48;;;;;;;103.20;61.58;;;9.40;99.90;;;;;;5007994;28;20099;-71
2022/11/15 07:13:35;;;;;;;113.50;61.53;;;9.40;99.90;;;;;;5010897;28;20065;-72
2022/11/15 07:16:20;;;;;;;95.32;57.90;;;9.40;99.90;;;;;;4998667;28;20459;-71
2022/11/15 07:19:04;;;;;;;114.25;68.45;;;9.20;99.90;;;;;;5011758;28;20447;-71
2022/11/15 07:21:49;;;;;;;109.25;60.83;;;9.20;99.90;;;;;;5012011;28;20104;-75
2022/11/15 07:24:34;;;;;;;104.78;58.08;;;9.10;99.90;;;;;;4998265;28;20072;-76
2022/11/15 07:27:18;;;;;;;108.72;57.17;;;9.20;99.90;;;;;;5012471;28;20049;-76
2022/11/15 07:30:04;;;;;;;105.85;56.80;;;9.30;99.90;;;;;;5011036;28;20092;-75
2022/11/15 07:32:53;;;;;;;94.85;54.70;;;9.30;99.90;;;;;;5009752;28;20049;-73
2022/11/15 07:35:37;;;;;;;116.18;60.30;;;9.40;99.90;;;;;;5003105;28;20045;-74
2022/11/15 07:38:22;;;;;;;114.60;60.90;;;9.30;99.90;;;;;;5011505;28;20323;-74
2022/11/15 07:41:06;;;;;;;97.55;56.88;;;9.40;99.90;;;;;;5011883;28;20609;-74
2022/11/15 07:43:52;;;;;;;109.53;60.20;;;9.50;99.90;;;;;;5011187;28;20045;-73
2022/11/15 07:46:36;;;;;;;108.45;57.45;;;9.60;99.90;;;;;;5006415;28;20080;-73
2022/11/15 07:49:21;;;;;;;101.03;54.95;;;9.60;99.90;;;;;;5000994;28;20570;-73
2022/11/15 07:52:05;;;;;;;100.13;57.08;;;9.80;99.90;;;;;;5011103;28;20820;-74
2022/11/15 07:54:50;;;;;;;136.48;66.72;;;9.90;99.90;;;;;;5010972;28;20041;-71
2022/11/15 07:57:35;;;;;;;143.23;69.97;;;9.90;99.90;;;;;;5000482;28;20106;-75
2022/11/15 08:00:20;;;;;;;136.23;67.22;;;10.10;99.90;;;;;;5008752;28;20404;-71
2022/11/15 08:03:13;;;;;;;137.95;66.25;;;10.20;99.90;;;;;;5010296;28;20049;-72
2022/11/15 08:05:57;;;;;;;;;;;10.30;99.90;;;;;;5011402;28;20100;-72
2022/11/15 08:08:42;;;;;;;142.35;69.25;;;10.40;99.90;;;;;;5009706;28;19916;-71
2022/11/15 08:11:26;;;;;;;132.20;66.45;;;10.30;99.90;;;;;;4998798;28;20135;-71
2022/11/15 08:14:10;;;;;;;110.13;57.75;;;10.30;99.90;;;;;;5009911;28;20064;-73
2022/11/15 08:16:55;;;;;;;117.22;59.83;;;10.20;99.90;;;;;;5010299;28;20136;-72
2022/11/15 08:19:39;;;;;;;108.00;60.90;;;10.20;99.90;;;;;;5009902;28;20116;-71
2022/11/15 08:22:24;;;;;;;117.65;57.80;;;10.30;99.90;;;;;;5010894;28;20053;-71
2022/11/15 08:25:08;;;;;;;107.60;59.17;;;10.30;99.90;;;;;;5010311;28;20499;-71
2022/11/15 08:27:54;;;;;;;115.45;60.13;;;10.30;99.90;;;;;;5010284;28;20045;-72
2022/11/15 08:30:41;;;;;;;115.93;60.85;;;10.30;99.90;;;;;;5006643;28;20401;-75
2022/11/15 08:33:27;;;;;;;105.65;58.60;;;10.30;99.90;;;;;;5004204;28;20069;-71
2022/11/15 08:36:14;;;;;;;107.22;58.22;;;10.30;99.90;;;;;;5010570;28;20562;-71
2022/11/15 08:38:58;;;;;;;103.68;60.08;;;10.40;99.90;;;;;;5000532;28;20049;-71
2022/11/15 08:41:44;;;;;;;116.60;56.97;;;10.40;99.90;;;;;;5008460;28;20041;-71
2022/11/15 08:44:28;;;;;;;108.05;59.85;;;10.30;99.90;;;;;;5011060;28;20069;-72
2022/11/15 08:47:13;;;;;;;106.50;57.03;;;10.30;99.90;;;;;;5010233;28;20451;-73
2022/11/15 08:49:58;;;;;;;102.78;53.97;;;10.30;99.90;;;;;;5009950;28;20033;-71
2022/11/15 08:52:42;;;;;;;115.10;60.88;;;10.20;99.90;;;;;;5010338;28;20073;-72
2022/11/15 08:55:26;;;;;;;102.05;54.03;;;10.10;99.90;;;;;;5010522;28;20087;-72
2022/11/15 08:58:10;;;;;;;101.32;55.08;;;10.10;99.90;;;;;;5010128;28;20741;-72
2022/11/15 09:00:55;;;;;;;99.18;52.45;;;10.20;99.90;;;;;;5010569;28;20519;-72
2022/11/15 09:03:40;;;;;;;104.38;56.97;;;10.20;99.90;;;;;;5010452;28;20072;-72
2022/11/15 09:06:25;;;;;;;104.63;53.15;;;10.20;99.90;;;;;;5010897;28;20564;-72
2022/11/15 09:09:09;;;;;;;99.20;54.42;;;10.30;99.90;;;;;;5008931;28;20041;-71
2022/11/15 09:11:54;;;;;;;110.07;57.08;;;10.20;99.90;;;;;;5010959;28;20131;-71
2022/11/15 09:14:38;;;;;;;128.02;64.22;;;10.10;99.90;;;;;;5010694;28;20111;-72
2022/11/15 09:17:23;;;;;;;102.55;59.05;;;10.30;99.90;;;;;;5009885;28;20156;-71
2022/11/15 09:20:09;;;;;;;102.28;54.85;;;10.30;99.90;;;;;;5010199;28;20080;-71
2022/11/15 09:22:53;;;;;;;111.82;57.88;;;10.40;99.90;;;;;;5009089;28;20088;-72
2022/11/15 09:25:38;;;;;;;104.45;55.88;;;10.40;99.90;;;;;;5009574;28;20164;-72
2022/11/15 09:28:22;;;;;;;113.75;60.00;;;10.40;99.90;;;;;;5010522;28;20045;-72
2022/11/15 09:31:07;;;;;;;106.82;60.63;;;10.50;99.90;;;;;;5008636;28;20125;-71
2022/11/15 09:33:52;;;;;;;103.75;60.08;;;10.60;99.90;;;;;;5002850;28;20053;-71
2022/11/15 09:36:36;;;;;;;104.15;56.67;;;10.70;99.90;;;;;;5000502;28;20396;-70
2022/11/15 09:39:21;;;;;;;96.38;54.75;;;10.80;99.90;;;;;;5009544;28;20057;-73
2022/11/15 09:42:18;;;;;;;101.45;55.83;;;10.70;99.90;;;;;;5009549;28;20041;-71
2022/11/15 09:45:05;;;;;;;100.93;55.03;;;10.80;99.90;;;;;;5009286;28;20179;-71
2022/11/15 09:48:20;;;;;;;101.30;52.30;;;10.70;99.90;;;;;;4999001;28;20096;-71
2022/11/15 09:51:08;;;;;;;102.68;54.13;;;10.70;99.90;;;;;;4998308;28;20049;-72
2022/11/15 09:53:58;;;;;;;97.35;54.03;;;10.70;99.90;;;;;;5012684;28;20117;-72
2022/11/15 09:56:31;;;;;;;97.78;53.38;;;10.80;99.90;;;;;;5013566;28;20476;-72
2022/11/15 09:59:15;;;;;;;102.90;54.03;;;10.70;99.90;;;;;;5013276;28;20032;-71
2022/11/15 10:01:56;;;;;;;88.40;50.85;;;10.90;99.90;;;;;;5005535;28;20034;-72
2022/11/15 10:04:25;;;;;;;83.32;48.08;;;11.00;99.90;;;;;;5013421;28;20034;-73
2022/11/15 10:07:23;;;;;;;86.88;51.67;;;11.10;99.90;;;;;;5013310;28;20105;-72
2022/11/15 10:10:07;;;;;;;95.20;54.83;;;11.00;99.90;;;;;;5011056;28;20018;-71
2022/11/15 10:12:33;;;;;;;91.07;51.53;;;10.90;99.90;;;;;;5010877;28;20048;-72
2022/11/15 10:15:10;;;;;;;88.55;48.55;;;10.90;99.90;;;;;;5013054;28;20029;-72
2022/11/15 10:18:18;;;;;;;95.38;52.28;;;10.80;99.90;;;;;;5011558;28;20046;-73
2022/11/15 10:20:50;;;;;;;80.65;48.90;;;10.90;99.90;;;;;;4967203;28;20051;-74
2022/11/15 10:23:22;;;;;;;87.85;48.65;;;11.10;99.90;;;;;;4971015;28;20035;-72
2022/11/15 10:25:52;;;;;;;94.22;53.17;;;11.10;99.90;;;;;;4970878;28;20049;-73
2022/11/15 10:28:29;;;;;;;90.95;49.97;;;11.10;99.90;;;;;;4969919;28;20046;-73
2022/11/15 10:30:57;;;;;;;95.38;50.28;;;11.30;99.90;;;;;;4970403;28;20034;-71
2022/11/15 10:33:41;;;;;;;88.90;50.90;;;11.30;99.90;;;;;;4961434;28;20183;-72
2022/11/15 10:36:13;;;;;;;88.72;53.20;;;11.10;99.90;;;;;;4971567;28;20062;-72
2022/11/15 10:38:48;;;;;;;102.53;53.93;;;11.10;99.90;;;;;;4970704;28;20457;-74
2022/11/15 10:41:16;;;;;;;88.85;49.17;;;11.20;99.90;;;;;;4970098;28;20077;-72
2022/11/15 10:43:42;;;;;;;77.55;48.53;;;11.40;99.90;;;;;;4967702;28;20026;-73
2022/11/15 10:46:22;;;;;;;83.20;49.20;;;11.30;99.90;;;;;;4971160;28;20370;-75
2022/11/15 10:48:48;;;;;;;91.85;51.40;;;11.20;99.90;;;;;;4970802;28;20179;-75
2022/11/15 10:51:44;;;;;;;89.55;47.75;;;11.20;99.90;;;;;;4969906;28;20042;-73
2022/11/15 10:54:11;;;;;;;93.97;51.47;;;11.20;99.90;;;;;;4956256;28;20513;-72
2022/11/15 10:56:37;;;;;;;87.45;48.80;;;11.20;99.90;;;;;;4972255;28;20051;-73
2022/11/15 10:59:03;;;;;;;88.03;51.42;;;11.10;99.90;;;;;;5012397;28;20065;-73
2022/11/15 11:01:29;;;;;;;102.47;57.85;;;11.10;99.90;;;;;;5012356;28;20025;-72
2022/11/15 11:04:07;;;;;;;91.20;54.88;;;11.20;99.90;;;;;;5010132;28;20034;-72
2022/11/15 11:06:52;;;;;;;93.10;50.53;;;11.20;99.90;;;;;;5008842;28;20132;-73
2022/11/15 11:09:36;;;;;;;88.05;50.80;;;11.30;99.90;;;;;;5005716;28;20023;-73
2022/11/15 11:12:04;;;;;;;89.32;54.13;;;11.40;99.90;;;;;;5005584;28;20049;-73
2022/11/15 11:14:33;;;;;;;93.68;51.20;;;11.30;99.90;;;;;;5012179;28;20072;-73
2022/11/15 11:17:20;;;;;;;90.43;53.03;;;11.40;99.90;;;;;;5012475;28;20049;-73
2022/11/15 11:19:49;;;;;;;96.47;55.95;;;11.40;99.90;;;;;;4999096;28;20041;-73
2022/11/15 11:22:39;;;;;;;94.50;54.85;;;11.50;99.90;;;;;;5011009;28;20056;-72
2022/11/15 11:25:37;;;;;;;87.70;54.90;;;11.50;99.90;;;;;;5009157;28;20057;-73
2022/11/15 11:28:33;;;;;;;90.78;56.33;;;11.40;99.90;;;;;;5010891;28;20064;-72
2022/11/15 11:31:36;;;;;;;96.22;55.22;;;11.70;99.90;;;;;;5011129;28;20084;-72
2022/11/15 11:34:14;;;;;;;;;;;11.70;99.90;;;;;;5010484;28;20129;-73
2022/11/15 11:36:49;;;;;;;102.25;56.28;;;11.70;99.90;;;;;;4998828;28;19916;-72
2022/11/15 11:39:18;;;;;;;98.38;60.50;;;11.60;99.90;;;;;;5011187;28;20064;-72
2022/11/15 11:41:51;;;;;;;111.57;62.42;;;11.50;99.90;;;;;;4996872;28;20034;-71
2022/11/15 11:44:54;;;;;;;108.88;59.72;;;11.60;99.90;;;;;;5002422;28;20038;-77
2022/11/15 11:47:30;;;;;;;94.28;57.65;;;11.60;99.90;;;;;;5012669;23;20128;-72
2022/11/15 11:50:20;;;;;;;96.50;57.40;;;11.50;99.90;;;;;;5024555;28;20026;-73
2022/11/15 11:53:02;;;;;;;109.03;59.40;;;11.50;99.90;;;;;;5015453;28;20726;-76
2022/11/15 11:55:47;;;;;;;100.20;62.22;;;11.60;99.90;;;;;;5027177;28;20494;-75
2022/11/15 11:58:21;;;;;;;106.90;61.67;;;11.70;99.90;;;;;;5029984;28;20387;-73
2022/11/15 12:00:51;;;;;;;99.10;57.97;;;11.70;99.90;;;;;;5030019;28;20021;-72
2022/11/15 12:03:23;;;;;;;103.07;58.97;;;11.70;99.90;;;;;;5029479;28;20033;-74
2022/11/15 12:05:51;;;;;;;108.05;64.50;;;11.80;99.90;;;;;;5029150;28;20044;-73
2022/11/15 12:08:17;;;;;;;110.82;68.90;;;12.00;99.90;;;;;;5030065;28;20018;-75
2022/11/15 12:10:48;;;;;;;116.72;71.63;;;12.00;99.90;;;;;;5029169;28;20037;-75
2022/11/15 12:13:19;;;;;;;95.20;56.28;;;12.20;99.90;;;;;;5021686;28;20041;-72
2022/11/15 12:16:07;;;;;;;93.05;57.83;;;12.20;99.90;;;;;;5022699;28;20025;-74
2022/11/15 12:18:34;;;;;;;90.45;55.70;;;12.20;99.90;;;;;;5012974;28;20042;-73
2022/11/15 12:21:07;;;;;;;84.90;55.38;;;12.00;99.90;;;;;;5029928;28;20035;-77
2022/11/15 12:23:50;;;;;;;86.65;54.30;;;12.10;99.90;;;;;;5025336;28;20013;-74
2022/11/15 12:26:33;;;;;;;81.90;53.80;;;11.90;99.90;;;;;;5028556;28;20045;-75
2022/11/15 12:29:11;;;;;;;99.53;62.90;;;12.00;99.90;;;;;;5020431;28;20025;-74
2022/11/15 12:31:43;;;;;;;95.53;65.93;;;12.00;99.90;;;;;;5006159;28;20034;-74
2022/11/15 12:34:21;;;;;;;98.20;62.97;;;12.00;99.90;;;;;;5001193;28;20033;-74
2022/11/15 12:36:49;;;;;;;95.07;56.72;;;12.10;99.90;;;;;;5010953;28;20033;-74
2022/11/15 12:39:16;;;;;;;100.05;60.53;;;12.10;99.90;;;;;;5010869;28;20022;-74
2022/11/15 12:42:03;;;;;;;102.43;60.25;;;12.00;99.90;;;;;;5010717;28;20045;-74
2022/11/15 12:44:32;;;;;;;96.75;62.42;;;11.90;99.90;;;;;;5010245;28;20036;-74
2022/11/15 12:47:22;;;;;;;94.30;59.78;;;12.00;99.90;;;;;;5010362;28;20057;-73
2022/11/15 12:49:48;;;;;;;97.75;60.88;;;12.10;99.90;;;;;;5010775;28;20069;-74
2022/11/15 12:52:15;;;;;;;107.35;65.35;;;12.00;99.90;;;;;;5010839;28;20164;-74
2022/11/15 12:54:41;;;;;;;109.70;62.42;;;11.90;99.90;;;;;;5010849;28;20484;-74
2022/11/15 12:57:07;;;;;;;95.32;63.53;;;11.70;99.90;;;;;;5010603;28;20061;-74
2022/11/15 12:59:58;;;;;;;107.65;66.90;;;11.60;99.90;;;;;;5010560;28;20058;-74
2022/11/15 13:02:31;;;;;;;103.95;61.42;;;11.60;99.90;;;;;;5003493;28;20377;-75
2022/11/15 13:05:16;;;;;;;105.05;59.97;;;11.70;99.90;;;;;;5002975;28;20116;-74
2022/11/15 13:07:41;;;;;;;103.20;62.08;;;11.80;99.90;;;;;;5011044;28;20033;-74
2022/11/15 13:10:10;;;;;;;97.40;62.65;;;11.90;99.90;;;;;;5010861;28;20029;-74
2022/11/15 13:12:40;;;;;;;100.20;60.33;;;11.90;99.90;;;;;;5010775;28;20042;-74
2022/11/15 13:15:12;;;;;;;99.95;60.78;;;11.90;99.90;;;;;;5010507;28;20022;-74
2022/11/15 13:17:52;;;;;;;95.27;58.20;;;11.90;99.90;;;;;;5010484;28;20389;-75
2022/11/15 13:20:27;;;;;;;97.30;60.22;;;11.90;99.90;;;;;;5010523;28;20321;-74
2022/11/15 13:23:01;;;;;;;104.75;60.67;;;11.90;99.90;;;;;;5010251;28;20034;-74
2022/11/15 13:25:39;;;;;;;98.30;64.85;;;11.90;99.90;;;;;;5010453;28;20036;-74
2022/11/15 13:28:14;;;;;;;107.97;62.30;;;11.80;99.90;;;;;;5012902;28;20070;-74
2022/11/15 13:30:55;;;;;;;99.80;63.95;;;11.70;99.90;;;;;;5014442;28;20543;-74
2022/11/15 13:33:33;;;;;;;100.65;60.60;;;11.60;99.90;;;;;;5014700;28;20100;-73
2022/11/15 13:36:06;;;;;;;97.47;61.20;;;11.70;99.90;;;;;;5014422;28;20380;-74
2022/11/15 13:38:36;;;;;;;;;;;11.60;99.90;;;;;;5014774;28;20025;-74
2022/11/15 13:41:23;;;;;;;104.32;63.95;;;11.40;99.90;;;;;;5014553;28;19999;-74
2022/11/15 13:43:50;;;;;;;104.82;68.55;;;11.30;99.90;;;;;;5013871;28;20376;-74
2022/11/15 13:46:27;;;;;;;117.28;71.28;;;11.40;99.90;;;;;;5013563;28;20029;-74
2022/11/15 13:48:54;;;;;;;108.28;65.90;;;11.40;99.90;;;;;;5013715;28;20488;-74
2022/11/15 13:51:40;;;;;;;107.20;65.88;;;11.40;99.90;;;;;;5014350;28;20353;-74
2022/11/15 13:54:23;;;;;;;108.63;65.18;;;11.50;99.90;;;;;;5013853;28;20034;-74
2022/11/15 13:57:04;;;;;;;110.30;66.20;;;11.50;99.90;;;;;;5013553;28;20597;-74
2022/11/15 13:59:36;;;;;;;117.78;72.18;;;11.40;99.90;;;;;;5001221;28;20235;-74
2022/11/15 14:02:18;;;;;;;108.63;67.32;;;11.40;99.90;;;;;;5013728;28;20388;-75
2022/11/15 14:04:50;;;;;;;110.97;64.95;;;11.30;99.90;;;;;;5013938;28;20022;-74
2022/11/15 14:07:19;;;;;;;106.55;65.25;;;11.30;99.90;;;;;;5013303;28;20449;-74
2022/11/15 14:09:46;;;;;;;104.65;67.68;;;11.30;99.90;;;;;;5012427;28;20018;-74